ETD8MY CYYZ-OMAA
Flight info
| Callsign | ETD8MY |
|---|---|
| Flight time | N/A |
| Altitude | 33000 |
| Route | DEDKI5 OLABA Q951 TALNO Q929 TOXAL DCT ALLEX/M084F330 N25A CARAC/M084F350 DCT JEBBY DCT 43N050W 44N040W 44N030W 4230N02000W/M084F370 DCT BANAL/N0482F370 DCT DIRMA DCT VIS DCT RIVRO DCT BARDI/N0488F360 M191 DIPOL M871 NVS/N0485F370 DCT NANDO DCT FENXE DCT MABUX DCT RETBA DCT MOPIR DCT LASPO DCT LUXUR UM134 ANB UA411 MORJA DCT SONAK DCT DINUX DCT AGARI DCT ARLOS/N0483F390 DCT SALUN N705 MMA P751 DASUM Y234 FYM M872 BDB Y214 RAPMA DCT KUVSO DCT KATIT DCT DANUX DCT TANSU/N0465F330 G783 VAVIM P899 ROVOS |
| Aircraft | A388/J-SADE2E3FGHIJ3J4J5M1RWXY/LB1D1 |
Departure
| Time | 2026-05-05 01:21 |
|---|---|
| Airport | Toronto Pearson International Airport (CYYZ) |
Arrival
| Time | N/A |
|---|---|
| Airport | Zayed International Airport (OMAA) |
| Time | Latitude | Longitude | Altitude | Speed | Heading |
|---|---|---|---|---|---|
| 2026-05-05 00:48 | 43.67695 | -79.61434 | 574 ft | 0 kts | 91° |
| 2026-05-05 01:06 | 43.67695 | -79.61436 | 566 ft | 2 kts | 91° |
| 2026-05-05 01:07 | 43.67693 | -79.61469 | 572 ft | 4 kts | 68° |
| 2026-05-05 01:07 | 43.67678 | -79.61498 | 576 ft | 4 kts | 35° |
| 2026-05-05 01:07 | 43.67655 | -79.61514 | 576 ft | 4 kts | 11° |
| 2026-05-05 01:07 | 43.67628 | -79.61517 | 571 ft | 4 kts | 353° |
| 2026-05-05 01:08 | 43.67604 | -79.61508 | 566 ft | 3 kts | 321° |
| 2026-05-05 01:08 | 43.67600 | -79.61504 | 566 ft | 1 kts | 316° |
| 2026-05-05 01:13 | 43.67603 | -79.61508 | 566 ft | 2 kts | 316° |
| 2026-05-05 01:14 | 43.67621 | -79.61532 | 568 ft | 5 kts | 316° |
| 2026-05-05 01:14 | 43.67652 | -79.61574 | 572 ft | 6 kts | 303° |
| 2026-05-05 01:14 | 43.67657 | -79.61623 | 576 ft | 5 kts | 248° |
| 2026-05-05 01:14 | 43.67636 | -79.61675 | 575 ft | 6 kts | 254° |
| 2026-05-05 01:15 | 43.67641 | -79.61729 | 576 ft | 6 kts | 300° |
| 2026-05-05 01:15 | 43.67679 | -79.61785 | 574 ft | 10 kts | 316° |
| 2026-05-05 01:15 | 43.67740 | -79.61865 | 577 ft | 14 kts | 316° |
| 2026-05-05 01:15 | 43.67818 | -79.61966 | 569 ft | 17 kts | 316° |
| 2026-05-05 01:16 | 43.67913 | -79.62064 | 572 ft | 17 kts | 337° |
| 2026-05-05 01:16 | 43.67973 | -79.62105 | 569 ft | 15 kts | 322° |
| 2026-05-05 01:16 | 43.68090 | -79.62256 | 576 ft | 19 kts | 316° |
| 2026-05-05 01:16 | 43.68194 | -79.62391 | 572 ft | 22 kts | 317° |
| 2026-05-05 01:17 | 43.68314 | -79.62533 | 574 ft | 24 kts | 317° |
| 2026-05-05 01:17 | 43.68395 | -79.62641 | 571 ft | 25 kts | 316° |
| 2026-05-05 01:17 | 43.68525 | -79.62810 | 576 ft | 27 kts | 316° |
| 2026-05-05 01:17 | 43.68663 | -79.62990 | 569 ft | 28 kts | 316° |
| 2026-05-05 01:18 | 43.68803 | -79.63172 | 571 ft | 27 kts | 317° |
| 2026-05-05 01:18 | 43.68935 | -79.63343 | 578 ft | 25 kts | 316° |
| 2026-05-05 01:18 | 43.69048 | -79.63492 | 574 ft | 17 kts | 317° |
| 2026-05-05 01:18 | 43.69110 | -79.63530 | 578 ft | 8 kts | 20° |
| 2026-05-05 01:19 | 43.69162 | -79.63470 | 577 ft | 11 kts | 45° |
| 2026-05-05 01:19 | 43.69247 | -79.63424 | 573 ft | 16 kts | 1° |
| 2026-05-05 01:19 | 43.69339 | -79.63395 | 577 ft | 14 kts | 32° |
| 2026-05-05 01:19 | 43.69419 | -79.63319 | 573 ft | 12 kts | 28° |
| 2026-05-05 01:20 | 43.69485 | -79.63353 | 572 ft | 10 kts | 284° |
| 2026-05-05 01:20 | 43.69464 | -79.63437 | 577 ft | 9 kts | 225° |
| 2026-05-05 01:20 | 43.69456 | -79.63448 | 576 ft | 0 kts | 226° |
| 2026-05-05 01:20 | 43.69408 | -79.63517 | 572 ft | 35 kts | 226° |
| 2026-05-05 01:21 | 43.69058 | -79.64023 | 575 ft | 107 kts | 226° |
| 2026-05-05 01:21 | 43.68412 | -79.64961 | 578 ft | 157 kts | 226° |
| 2026-05-05 01:21 | 43.67639 | -79.66097 | 991 ft | 162 kts | 223° |
| 2026-05-05 01:21 | 43.66910 | -79.67241 | 1672 ft | 154 kts | 231° |
| 2026-05-05 01:22 | 43.66321 | -79.68415 | 2372 ft | 146 kts | 234° |
| 2026-05-05 01:22 | 43.65752 | -79.69627 | 2676 ft | 156 kts | 234° |
| 2026-05-05 01:22 | 43.65143 | -79.70936 | 2781 ft | 170 kts | 234° |
| 2026-05-05 01:22 | 43.64478 | -79.72368 | 2892 ft | 182 kts | 235° |
| 2026-05-05 01:23 | 43.63753 | -79.73917 | 2998 ft | 204 kts | 235° |
| 2026-05-05 01:23 | 43.62935 | -79.75653 | 3169 ft | 227 kts | 235° |
| 2026-05-05 01:23 | 43.62061 | -79.77491 | 3791 ft | 229 kts | 236° |
| 2026-05-05 01:23 | 43.61167 | -79.79333 | 4423 ft | 233 kts | 235° |
| 2026-05-05 01:24 | 43.60075 | -79.80994 | 5057 ft | 237 kts | 217° |
| 2026-05-05 01:24 | 43.58504 | -79.81799 | 5687 ft | 251 kts | 190° |
| 2026-05-05 01:24 | 43.56737 | -79.81452 | 6276 ft | 270 kts | 164° |
| 2026-05-05 01:24 | 43.55142 | -79.79932 | 6846 ft | 290 kts | 138° |
| 2026-05-05 01:25 | 43.53976 | -79.77616 | 7430 ft | 302 kts | 123° |
| 2026-05-05 01:25 | 43.53233 | -79.74848 | 8028 ft | 311 kts | 111° |
| 2026-05-05 01:25 | 43.52640 | -79.72020 | 8610 ft | 315 kts | 109° |
| 2026-05-05 01:25 | 43.52067 | -79.69075 | 9195 ft | 320 kts | 108° |
| 2026-05-05 01:26 | 43.51524 | -79.66083 | 9771 ft | 323 kts | 107° |
| 2026-05-05 01:26 | 43.50993 | -79.63058 | 10269 ft | 329 kts | 107° |
| 2026-05-05 01:26 | 43.50559 | -79.59870 | 10440 ft | 349 kts | 96° |
| 2026-05-05 01:26 | 43.50669 | -79.56452 | 10602 ft | 365 kts | 80° |
| 2026-05-05 01:27 | 43.51317 | -79.53004 | 10793 ft | 378 kts | 74° |
| 2026-05-05 01:27 | 43.52025 | -79.49486 | 11285 ft | 381 kts | 74° |
| 2026-05-05 01:27 | 43.52714 | -79.45954 | 11819 ft | 384 kts | 75° |
| 2026-05-05 01:27 | 43.53400 | -79.42381 | 12320 ft | 387 kts | 75° |
| 2026-05-05 01:28 | 43.54143 | -79.38801 | 12840 ft | 389 kts | 72° |
| 2026-05-05 01:28 | 43.54958 | -79.35233 | 13355 ft | 392 kts | 71° |
| 2026-05-05 01:28 | 43.55792 | -79.31634 | 13803 ft | 395 kts | 71° |
| 2026-05-05 01:28 | 43.56615 | -79.28044 | 14247 ft | 398 kts | 71° |
| 2026-05-05 01:29 | 43.57448 | -79.24362 | 14691 ft | 401 kts | 72° |
| 2026-05-05 01:29 | 43.58264 | -79.20720 | 15130 ft | 404 kts | 72° |
| 2026-05-05 01:29 | 43.59101 | -79.16963 | 15568 ft | 407 kts | 72° |
| 2026-05-05 01:29 | 43.59934 | -79.13218 | 16000 ft | 410 kts | 72° |
| 2026-05-05 01:30 | 43.60760 | -79.09492 | 16423 ft | 412 kts | 72° |
| 2026-05-05 01:30 | 43.61588 | -79.05753 | 16826 ft | 416 kts | 72° |
| 2026-05-05 01:30 | 43.62431 | -79.01937 | 17261 ft | 418 kts | 72° |
| 2026-05-05 01:30 | 43.63282 | -78.98077 | 17687 ft | 421 kts | 72° |
| 2026-05-05 01:31 | 43.64136 | -78.94201 | 18062 ft | 424 kts | 72° |
| 2026-05-05 01:31 | 43.64996 | -78.90291 | 18435 ft | 426 kts | 72° |
| 2026-05-05 01:31 | 43.65846 | -78.86416 | 18779 ft | 428 kts | 72° |
| 2026-05-05 01:31 | 43.66721 | -78.82423 | 19145 ft | 430 kts | 72° |
| 2026-05-05 01:32 | 43.67588 | -78.78458 | 19487 ft | 433 kts | 72° |
| 2026-05-05 01:32 | 43.68460 | -78.74462 | 19834 ft | 435 kts | 72° |
| 2026-05-05 01:32 | 43.69417 | -78.70496 | 20170 ft | 436 kts | 65° |
| 2026-05-05 01:32 | 43.70621 | -78.66641 | 20496 ft | 438 kts | 65° |
| 2026-05-05 01:33 | 43.71827 | -78.62765 | 20850 ft | 440 kts | 65° |
| 2026-05-05 01:33 | 43.73032 | -78.58866 | 21175 ft | 442 kts | 65° |
| 2026-05-05 01:33 | 43.74238 | -78.54944 | 21524 ft | 444 kts | 65° |
| 2026-05-05 01:33 | 43.75449 | -78.50999 | 21851 ft | 447 kts | 65° |
| 2026-05-05 01:34 | 43.76662 | -78.47040 | 22188 ft | 449 kts | 65° |
| 2026-05-05 01:34 | 43.77868 | -78.43094 | 22525 ft | 451 kts | 65° |
| 2026-05-05 01:34 | 43.79092 | -78.39085 | 22852 ft | 453 kts | 65° |
| 2026-05-05 01:34 | 43.80320 | -78.35058 | 23166 ft | 455 kts | 64° |
| 2026-05-05 01:35 | 43.81555 | -78.31002 | 23448 ft | 458 kts | 65° |
| 2026-05-05 01:35 | 43.82792 | -78.26934 | 23720 ft | 459 kts | 65° |
| 2026-05-05 01:35 | 43.84031 | -78.22850 | 24005 ft | 461 kts | 65° |
| 2026-05-05 01:35 | 43.85274 | -78.18748 | 24285 ft | 463 kts | 65° |
| 2026-05-05 01:36 | 43.86521 | -78.14627 | 24567 ft | 465 kts | 65° |
| 2026-05-05 01:36 | 43.87771 | -78.10488 | 24863 ft | 467 kts | 65° |
| 2026-05-05 01:36 | 43.89026 | -78.06327 | 25147 ft | 469 kts | 65° |
| 2026-05-05 01:36 | 43.90278 | -78.02169 | 25435 ft | 470 kts | 65° |
| 2026-05-05 01:37 | 43.91544 | -77.97957 | 25747 ft | 472 kts | 65° |
| 2026-05-05 01:37 | 43.92744 | -77.93957 | 26053 ft | 474 kts | 65° |
| 2026-05-05 01:37 | 43.93887 | -77.90142 | 26336 ft | 476 kts | 65° |
| 2026-05-05 01:37 | 43.95161 | -77.85884 | 26666 ft | 479 kts | 65° |
| 2026-05-05 01:38 | 43.96439 | -77.81606 | 27001 ft | 481 kts | 65° |
| 2026-05-05 01:38 | 43.97716 | -77.77323 | 27325 ft | 483 kts | 65° |
| 2026-05-05 01:38 | 43.99003 | -77.72998 | 27667 ft | 485 kts | 65° |
| 2026-05-05 01:38 | 44.00294 | -77.68653 | 28013 ft | 487 kts | 65° |
| 2026-05-05 01:39 | 44.01588 | -77.64289 | 28338 ft | 490 kts | 65° |
| 2026-05-05 01:39 | 44.02888 | -77.59901 | 28685 ft | 492 kts | 65° |
| 2026-05-05 01:39 | 44.04175 | -77.55547 | 29018 ft | 494 kts | 65° |
| 2026-05-05 01:39 | 44.05483 | -77.51118 | 29365 ft | 497 kts | 65° |
| 2026-05-05 01:40 | 44.06813 | -77.46607 | 29719 ft | 500 kts | 65° |
| 2026-05-05 01:40 | 44.08132 | -77.42124 | 30025 ft | 501 kts | 65° |
| 2026-05-05 01:40 | 44.09530 | -77.37697 | 30376 ft | 502 kts | 62° |
| 2026-05-05 01:40 | 44.10998 | -77.33334 | 30679 ft | 503 kts | 61° |
| 2026-05-05 01:41 | 44.12494 | -77.28919 | 30990 ft | 505 kts | 62° |
| 2026-05-05 01:41 | 44.13983 | -77.24485 | 31299 ft | 507 kts | 62° |
| 2026-05-05 01:41 | 44.15466 | -77.20021 | 31610 ft | 508 kts | 62° |
| 2026-05-05 01:41 | 44.16945 | -77.15535 | 31923 ft | 510 kts | 62° |
| 2026-05-05 01:42 | 44.18423 | -77.11035 | 32226 ft | 512 kts | 62° |
| 2026-05-05 01:42 | 44.19900 | -77.06526 | 32535 ft | 513 kts | 62° |
| 2026-05-05 01:42 | 44.21387 | -77.01976 | 32716 ft | 518 kts | 62° |
| 2026-05-05 01:42 | 44.22893 | -76.97369 | 32706 ft | 527 kts | 62° |
| 2026-05-05 01:43 | 44.25940 | -76.88011 | 32713 ft | 533 kts | 62° |
| 2026-05-05 01:43 | 44.28997 | -76.78579 | 32711 ft | 532 kts | 62° |
| 2026-05-05 01:44 | 44.32042 | -76.69154 | 32713 ft | 532 kts | 62° |
| 2026-05-05 01:44 | 44.35081 | -76.59720 | 32712 ft | 533 kts | 62° |
| 2026-05-05 01:45 | 44.38108 | -76.50289 | 32709 ft | 532 kts | 62° |
| 2026-05-05 01:45 | 44.41132 | -76.40830 | 32705 ft | 532 kts | 62° |
| 2026-05-05 01:46 | 44.44147 | -76.31370 | 32701 ft | 532 kts | 62° |
| 2026-05-05 01:46 | 44.47139 | -76.21946 | 32704 ft | 533 kts | 62° |
| 2026-05-05 01:47 | 44.50134 | -76.12458 | 32704 ft | 533 kts | 62° |
| 2026-05-05 01:47 | 44.53118 | -76.02951 | 32703 ft | 533 kts | 62° |
| 2026-05-05 01:48 | 44.56097 | -75.93428 | 32698 ft | 533 kts | 62° |
| 2026-05-05 01:48 | 44.59069 | -75.83896 | 32701 ft | 533 kts | 63° |
| 2026-05-05 01:49 | 44.62035 | -75.74352 | 32684 ft | 533 kts | 63° |
| 2026-05-05 01:49 | 44.64997 | -75.64779 | 32683 ft | 534 kts | 63° |
| 2026-05-05 01:50 | 44.67710 | -75.55104 | 32684 ft | 535 kts | 66° |
| 2026-05-05 01:50 | 44.70322 | -75.45271 | 32687 ft | 535 kts | 65° |
| 2026-05-05 01:51 | 44.72947 | -75.35535 | 32690 ft | 535 kts | 65° |
| 2026-05-05 01:51 | 44.75783 | -75.25877 | 32693 ft | 533 kts | 63° |
| 2026-05-05 01:52 | 44.78662 | -75.16218 | 32712 ft | 533 kts | 63° |
| 2026-05-05 01:52 | 44.81480 | -75.06615 | 32715 ft | 533 kts | 63° |
| 2026-05-05 01:53 | 44.84297 | -74.96946 | 32707 ft | 532 kts | 63° |
| 2026-05-05 01:53 | 44.87088 | -74.87324 | 32707 ft | 531 kts | 63° |
| 2026-05-05 01:54 | 44.89879 | -74.77669 | 32702 ft | 531 kts | 64° |
| 2026-05-05 01:54 | 44.92402 | -74.67855 | 32698 ft | 533 kts | 69° |
| 2026-05-05 01:55 | 44.94573 | -74.57840 | 32697 ft | 533 kts | 69° |
| 2026-05-05 01:55 | 44.96759 | -74.47820 | 32698 ft | 533 kts | 69° |
| 2026-05-05 01:56 | 44.98931 | -74.37786 | 32690 ft | 533 kts | 69° |
| 2026-05-05 01:56 | 45.00936 | -74.27784 | 32695 ft | 535 kts | 72° |
| 2026-05-05 01:57 | 45.02782 | -74.17551 | 32700 ft | 535 kts | 72° |
| 2026-05-05 01:57 | 45.04634 | -74.07419 | 32702 ft | 535 kts | 72° |
| 2026-05-05 01:58 | 45.06509 | -73.97226 | 32709 ft | 535 kts | 72° |
| 2026-05-05 01:58 | 45.07873 | -73.86834 | 32708 ft | 540 kts | 83° |
| 2026-05-05 01:59 | 45.08269 | -73.76211 | 32700 ft | 540 kts | 84° |
| 2026-05-05 01:59 | 45.08692 | -73.65630 | 32710 ft | 541 kts | 84° |
| 2026-05-05 02:00 | 45.09103 | -73.54997 | 32699 ft | 541 kts | 84° |